AirNav   ATP
 
 1527 users online  

27FL Wesley Chapel Medical Center Heliport
Wesley Chapel, Florida, USA

GOING TO WESLEY CHAPEL?


FAA INFORMATION EFFECTIVE 24 MAY 2018

Location

FAA Identifier: 27FL
Lat/Long: 28-11-40.9300N / 082-21-01.7000W
28-11.682167N / 082-21.028333W
28.1947028 / -82.3504722
(estimated)
Elevation: 174 ft. / 53 m (estimated)
Time zone: UTC -4 (UTC -5 during Standard Time)
Zip code: 33543

Heliport Operations

Heliport use: Private use. Permission required prior to landing
Activation date: 04/2013
Control tower: no
ARTCC: MIAMI CENTER
FSS: SAINT PETERSBURG FLIGHT SERVICE STATION
Attendance: CONTINUOUS
Wind indicator: yes
Segmented circle: no

Heliport Communications

WX ASOS at ZPH (10 nm E): 118.975 (813-780-0031)
WX AWOS-3 at VDF (11 nm S): 121.125 (813-630-0924)
WX AWOS-3 at PCM (15 nm SE): 120.025 (813-764-8259)
WX ASOS at TPA (16 nm SW): PHONE 813-873-7228
WX AWOS-3 at TPF (18 nm S): 118.925 (813-251-6824)
WX ASOS at BKV (18 nm N): 134.725 (352-799-5881)

Nearby radio navigation aids

VOR radial/distance  VOR name  Freq  Var
LALr304/21.8LAKELAND VORTAC116.0001E
PIEr051/24.7ST PETERSBURG VORTAC116.4005W

 
NDB name  Hdg/Dist  Freq  Var  ID
COSME060/11.336805WTP - .--.

Heliport Services

Runway Information

Helipad H1

Dimensions: 61 x 61 ft. / 19 x 19 m
Surface: concrete
Latitude: 28-11.682167N
Longitude: 082-21.028333W
Elevation: 174.0 ft.
Traffic pattern: leftleft

Heliport Ownership and Management from official FAA records

Ownership: Privately-owned
Owner: PASCO-PINELIAS HILLSBOROUGH COMM.
2600 BRUCE B. DOWNS BLVD
WESLEY CHAPEL, FL 33544
Phone 813-929-5490
Manager: JOHN CROUCH
2600 BRUCE B. DOWNS BLVD
WESLEY CHAPEL, FL 33544
Phone 813-929-5490
PASCO-PINELIAS HILLSBOROUGH COMMUNITY HEALTH SYSTEM

Instrument Procedures

There are no published instrument procedures at 27FL.

Some nearby airports with instrument procedures:

KZPH - Zephyrhills Municipal Airport (10 nm E)
KVDF - Tampa Executive Airport (11 nm S)
KPCM - Plant City Airport (15 nm SE)
KTPA - Tampa International Airport (16 nm SW)
KTPF - Peter O Knight Airport (18 nm S)
KBKV - Brooksville-Tampa Bay Regional Airport (18 nm N)
 
Loc | Ops | Rwys | IFR | FBO | Links
Com | Nav | Svcs | Stats | Notes


 
Aerial photo
No photo
 
Airport distance calculator
Flying to Wesley Chapel Medical Center Heliport? Find the distance to fly.

From to 27FL

Sunrise and sunset
Times for 18-Jun-2018
 Local
(UTC-4)
 Zulu
(UTC)
Morning civil twilight06:0710:07
Sunrise06:3410:34
Sunset20:2700:27
Evening civil twilight20:5400:54

Current date and time
Zulu (UTC)  18-Jun-2018 21:02:18
Local (UTC-4)  18-Jun-2018 17:02:18
 
METAR
KZPH 
10nm E 
182055Z AUTO 00000KT 10SM SCT048 34/22 A3006 RMK AO2 LTG DSNT SE T03420218
KVDF 
11nm S 
182055Z AUTO 09004KT 10SM SCT070 SCT085 34/22 A3005 RMK AO2
KPCM 
15nm SE 
182055Z AUTO 10010G16KT 10SM BKN050 BKN065 BKN075 33/21 A3007 RMK AO2
KTPA 
17nm SW 
182053Z 25004KT 10SM TS BKN045CB BKN340 32/22 A3004 RMK AO2 LTG DSNT E RAB05E14 TSB33 SLP173 OCNL LTGCG VC SW-W TS VC SW-W MOV SW CB DSNT NE-E TCU OHD AND ALQDS SHRA DSNT E P0003 60003 T03170222 56021
KBKV 
17nm N 
182053Z 26005KT 10SM CLR 33/23 A3005 RMK AO2 SLP174 T03280228 57021
KTPF 
18nm S 
182055Z AUTO 00000KT 10SM OVC055 32/22 A3004 RMK AO2
TAF
KTPA 
17nm SW 
181737Z 1818/1924 25006KT P6SM BKN040 FM182000 29007KT P6SM VCTS SCT030CB BKN050 FM182300 36005KT P6SM VCTS SCT030CB BKN050 FM190200 VRB03KT P6SM FEW030 SCT130 BKN250 FM191400 16005KT P6SM SCT020 SCT250 FM191700 23007KT P6SM SCT040 SCT250 FM192100 28007KT P6SM SCT050 SCT250
NOTAMs
Click for the latest NOTAMs
NOTAMs are issued by the DoD/FAA and will open in a separate window not controlled by AirNav.

 

 
 

Would you like to see your business listed on this page?

 If your business provides an interesting product or service to pilots, flight crews, aircraft, or users of the Wesley Chapel Medical Center Heliport, you should consider listing it here.  To start the listing process, click on the button below
 
Add a business
 

Other Pages about Wesley Chapel Medical Center Heliport

Update a link
 
Copyright © AirNav, LLC. All rights reserved. Privacy Policy  Contact